sensor_id;sensor_type;location;lat;lon;timestamp;P1;durP1;ratioP1;P2;durP2;ratioP2
5876;SDS011;2964;42.144;24.730;2023-07-02T00:01:18;19.70;;;13.60;;
5876;SDS011;2964;42.144;24.730;2023-07-02T00:03:44;14.13;;;13.03;;
5876;SDS011;2964;42.144;24.730;2023-07-02T00:06:11;14.63;;;13.23;;
5876;SDS011;2964;42.144;24.730;2023-07-02T00:08:38;12.63;;;11.50;;
5876;SDS011;2964;42.144;24.730;2023-07-02T00:11:05;14.43;;;12.93;;
5876;SDS011;2964;42.144;24.730;2023-07-02T00:13:32;13.60;;;12.33;;
5876;SDS011;2964;42.144;24.730;2023-07-02T00:15:59;14.40;;;13.13;;
5876;SDS011;2964;42.144;24.730;2023-07-02T00:18:26;13.90;;;12.70;;
5876;SDS011;2964;42.144;24.730;2023-07-02T00:20:58;13.70;;;12.43;;
5876;SDS011;2964;42.144;24.730;2023-07-02T00:23:26;15.70;;;14.10;;
5876;SDS011;2964;42.144;24.730;2023-07-02T00:25:52;16.57;;;14.97;;
5876;SDS011;2964;42.144;24.730;2023-07-02T00:28:19;19.83;;;17.00;;
5876;SDS011;2964;42.144;24.730;2023-07-02T00:30:46;22.83;;;18.83;;
5876;SDS011;2964;42.144;24.730;2023-07-02T00:33:13;19.67;;;17.17;;
5876;SDS011;2964;42.144;24.730;2023-07-02T00:35:41;25.40;;;19.27;;
5876;SDS011;2964;42.144;24.730;2023-07-02T00:38:07;21.13;;;19.03;;
5876;SDS011;2964;42.144;24.730;2023-07-02T00:40:34;20.07;;;17.67;;
5876;SDS011;2964;42.144;24.730;2023-07-02T00:43:02;19.10;;;17.20;;
5876;SDS011;2964;42.144;24.730;2023-07-02T00:45:28;14.67;;;13.17;;
5876;SDS011;2964;42.144;24.730;2023-07-02T00:47:56;15.60;;;14.20;;
5876;SDS011;2964;42.144;24.730;2023-07-02T00:50:23;19.03;;;15.37;;
5876;SDS011;2964;42.144;24.730;2023-07-02T00:52:52;15.93;;;13.83;;
5876;SDS011;2964;42.144;24.730;2023-07-02T00:55:20;14.90;;;13.60;;
5876;SDS011;2964;42.144;24.730;2023-07-02T00:57:47;15.10;;;13.70;;
5876;SDS011;2964;42.144;24.730;2023-07-02T01:00:13;14.37;;;13.03;;
5876;SDS011;2964;42.144;24.730;2023-07-02T01:02:41;14.00;;;12.80;;
5876;SDS011;2964;42.144;24.730;2023-07-02T01:05:09;14.97;;;13.47;;
5876;SDS011;2964;42.144;24.730;2023-07-02T01:07:39;16.57;;;14.87;;
5876;SDS011;2964;42.144;24.730;2023-07-02T01:10:08;17.70;;;16.00;;
5876;SDS011;2964;42.144;24.730;2023-07-02T01:12:35;16.73;;;15.13;;
5876;SDS011;2964;42.144;24.730;2023-07-02T01:15:03;18.43;;;16.43;;
5876;SDS011;2964;42.144;24.730;2023-07-02T01:17:32;16.67;;;15.10;;
5876;SDS011;2964;42.144;24.730;2023-07-02T01:20:08;19.50;;;16.60;;
5876;SDS011;2964;42.144;24.730;2023-07-02T01:22:36;20.93;;;18.83;;
5876;SDS011;2964;42.144;24.730;2023-07-02T01:25:04;28.63;;;22.00;;
5876;SDS011;2964;42.144;24.730;2023-07-02T01:27:33;25.37;;;21.03;;
5876;SDS011;2964;42.144;24.730;2023-07-02T01:30:01;28.60;;;23.47;;
5876;SDS011;2964;42.144;24.730;2023-07-02T01:32:27;23.70;;;21.20;;
5876;SDS011;2964;42.144;24.730;2023-07-02T01:34:54;27.70;;;23.10;;
5876;SDS011;2964;42.144;24.730;2023-07-02T01:37:22;26.23;;;20.63;;
5876;SDS011;2964;42.144;24.730;2023-07-02T01:39:49;21.30;;;19.10;;
5876;SDS011;2964;42.144;24.730;2023-07-02T01:42:16;19.93;;;17.83;;
5876;SDS011;2964;42.144;24.730;2023-07-02T01:44:44;21.23;;;19.03;;
5876;SDS011;2964;42.144;24.730;2023-07-02T01:47:12;21.43;;;19.17;;
5876;SDS011;2964;42.144;24.730;2023-07-02T01:49:39;18.27;;;16.23;;
5876;SDS011;2964;42.144;24.730;2023-07-02T01:52:06;24.17;;;16.17;;
5876;SDS011;2964;42.144;24.730;2023-07-02T01:54:34;15.27;;;13.77;;
5876;SDS011;2964;42.144;24.730;2023-07-02T01:57:01;15.33;;;13.87;;
5876;SDS011;2964;42.144;24.730;2023-07-02T01:59:30;14.73;;;13.57;;
5876;SDS011;2964;42.144;24.730;2023-07-02T02:01:56;15.53;;;13.73;;
5876;SDS011;2964;42.144;24.730;2023-07-02T02:04:23;15.07;;;12.93;;
5876;SDS011;2964;42.144;24.730;2023-07-02T02:06:50;14.23;;;12.93;;
5876;SDS011;2964;42.144;24.730;2023-07-02T02:09:17;14.40;;;12.37;;
5876;SDS011;2964;42.144;24.730;2023-07-02T02:11:47;13.73;;;12.13;;
5876;SDS011;2964;42.144;24.730;2023-07-02T02:14:15;13.70;;;12.17;;
5876;SDS011;2964;42.144;24.730;2023-07-02T02:16:42;13.30;;;12.13;;
5876;SDS011;2964;42.144;24.730;2023-07-02T02:19:10;12.53;;;11.50;;
5876;SDS011;2964;42.144;24.730;2023-07-02T02:21:37;13.97;;;11.73;;
5876;SDS011;2964;42.144;24.730;2023-07-02T02:24:05;13.13;;;11.87;;
5876;SDS011;2964;42.144;24.730;2023-07-02T02:26:32;14.57;;;12.10;;
5876;SDS011;2964;42.144;24.730;2023-07-02T02:29:00;12.03;;;10.80;;
5876;SDS011;2964;42.144;24.730;2023-07-02T02:31:27;13.20;;;11.90;;
5876;SDS011;2964;42.144;24.730;2023-07-02T02:33:53;13.40;;;12.23;;
5876;SDS011;2964;42.144;24.730;2023-07-02T02:36:20;12.57;;;11.57;;
5876;SDS011;2964;42.144;24.730;2023-07-02T02:38:47;12.97;;;11.00;;
5876;SDS011;2964;42.144;24.730;2023-07-02T02:41:13;12.13;;;10.93;;
5876;SDS011;2964;42.144;24.730;2023-07-02T02:43:41;11.60;;;10.47;;
5876;SDS011;2964;42.144;24.730;2023-07-02T02:46:09;12.53;;;11.43;;
5876;SDS011;2964;42.144;24.730;2023-07-02T02:48:37;11.90;;;11.07;;
5876;SDS011;2964;42.144;24.730;2023-07-02T02:51:03;12.13;;;10.73;;
5876;SDS011;2964;42.144;24.730;2023-07-02T02:53:30;11.77;;;10.87;;
5876;SDS011;2964;42.144;24.730;2023-07-02T02:55:56;12.47;;;11.17;;
5876;SDS011;2964;42.144;24.730;2023-07-02T02:58:23;14.40;;;12.20;;
5876;SDS011;2964;42.144;24.730;2023-07-02T03:00:50;11.97;;;11.07;;
5876;SDS011;2964;42.144;24.730;2023-07-02T03:03:18;11.03;;;10.23;;
5876;SDS011;2964;42.144;24.730;2023-07-02T03:05:45;12.73;;;11.00;;
5876;SDS011;2964;42.144;24.730;2023-07-02T03:08:13;13.00;;;11.63;;
5876;SDS011;2964;42.144;24.730;2023-07-02T03:10:40;13.57;;;12.27;;
5876;SDS011;2964;42.144;24.730;2023-07-02T03:13:07;13.57;;;12.43;;
5876;SDS011;2964;42.144;24.730;2023-07-02T03:15:34;13.50;;;12.17;;
5876;SDS011;2964;42.144;24.730;2023-07-02T03:18:00;15.73;;;12.43;;
5876;SDS011;2964;42.144;24.730;2023-07-02T03:20:28;13.80;;;12.20;;
5876;SDS011;2964;42.144;24.730;2023-07-02T03:22:55;15.83;;;12.50;;
5876;SDS011;2964;42.144;24.730;2023-07-02T03:25:22;14.93;;;13.33;;
5876;SDS011;2964;42.144;24.730;2023-07-02T03:27:48;15.17;;;12.83;;
5876;SDS011;2964;42.144;24.730;2023-07-02T03:30:15;19.70;;;13.10;;
5876;SDS011;2964;42.144;24.730;2023-07-02T03:32:42;13.90;;;12.50;;
5876;SDS011;2964;42.144;24.730;2023-07-02T03:35:08;13.90;;;12.57;;
5876;SDS011;2964;42.144;24.730;2023-07-02T03:37:36;15.30;;;13.00;;
5876;SDS011;2964;42.144;24.730;2023-07-02T03:40:03;16.83;;;14.17;;
5876;SDS011;2964;42.144;24.730;2023-07-02T03:42:32;16.03;;;13.90;;
5876;SDS011;2964;42.144;24.730;2023-07-02T03:44:59;15.70;;;13.17;;
5876;SDS011;2964;42.144;24.730;2023-07-02T03:47:26;19.50;;;13.20;;
5876;SDS011;2964;42.144;24.730;2023-07-02T03:49:52;22.90;;;12.90;;
5876;SDS011;2964;42.144;24.730;2023-07-02T03:52:20;18.27;;;11.80;;
5876;SDS011;2964;42.144;24.730;2023-07-02T03:54:48;18.27;;;12.50;;
5876;SDS011;2964;42.144;24.730;2023-07-02T03:57:14;13.67;;;12.27;;
5876;SDS011;2964;42.144;24.730;2023-07-02T03:59:41;12.60;;;11.43;;
5876;SDS011;2964;42.144;24.730;2023-07-02T04:02:08;19.37;;;12.07;;
5876;SDS011;2964;42.144;24.730;2023-07-02T04:04:34;13.17;;;11.20;;
5876;SDS011;2964;42.144;24.730;2023-07-02T04:07:01;13.83;;;12.33;;
5876;SDS011;2964;42.144;24.730;2023-07-02T04:09:28;13.53;;;11.07;;
5876;SDS011;2964;42.144;24.730;2023-07-02T04:11:56;13.43;;;11.60;;
5876;SDS011;2964;42.144;24.730;2023-07-02T04:14:22;12.83;;;11.60;;
5876;SDS011;2964;42.144;24.730;2023-07-02T04:16:49;16.13;;;12.07;;
5876;SDS011;2964;42.144;24.730;2023-07-02T04:19:15;25.07;;;11.60;;
5876;SDS011;2964;42.144;24.730;2023-07-02T04:21:42;13.43;;;12.13;;
5876;SDS011;2964;42.144;24.730;2023-07-02T04:24:09;15.87;;;12.80;;
5876;SDS011;2964;42.144;24.730;2023-07-02T04:26:35;13.20;;;11.70;;
5876;SDS011;2964;42.144;24.730;2023-07-02T04:29:04;13.67;;;11.27;;
5876;SDS011;2964;42.144;24.730;2023-07-02T04:31:30;14.90;;;11.30;;
5876;SDS011;2964;42.144;24.730;2023-07-02T04:33:57;16.80;;;12.23;;
5876;SDS011;2964;42.144;24.730;2023-07-02T04:36:24;11.90;;;10.50;;
5876;SDS011;2964;42.144;24.730;2023-07-02T04:38:51;15.43;;;12.17;;
5876;SDS011;2964;42.144;24.730;2023-07-02T04:41:18;13.20;;;11.03;;
5876;SDS011;2964;42.144;24.730;2023-07-02T04:43:45;15.67;;;11.10;;
5876;SDS011;2964;42.144;24.730;2023-07-02T04:46:13;12.53;;;11.43;;
5876;SDS011;2964;42.144;24.730;2023-07-02T04:48:40;15.10;;;10.77;;
5876;SDS011;2964;42.144;24.730;2023-07-02T04:51:06;21.67;;;11.07;;
5876;SDS011;2964;42.144;24.730;2023-07-02T04:53:33;10.73;;;9.63;;
5876;SDS011;2964;42.144;24.730;2023-07-02T04:55:59;12.70;;;11.40;;
5876;SDS011;2964;42.144;24.730;2023-07-02T04:58:26;12.23;;;10.47;;
5876;SDS011;2964;42.144;24.730;2023-07-02T05:00:53;14.70;;;10.50;;
5876;SDS011;2964;42.144;24.730;2023-07-02T05:03:21;17.10;;;10.73;;
5876;SDS011;2964;42.144;24.730;2023-07-02T05:05:48;11.35;;;10.30;;
5876;SDS011;2964;42.144;24.730;2023-07-02T05:08:14;10.70;;;9.63;;
5876;SDS011;2964;42.144;24.730;2023-07-02T05:10:41;11.20;;;9.95;;
5876;SDS011;2964;42.144;24.730;2023-07-02T05:13:08;14.95;;;11.25;;
5876;SDS011;2964;42.144;24.730;2023-07-02T05:15:34;13.05;;;11.40;;
5876;SDS011;2964;42.144;24.730;2023-07-02T05:18:01;13.77;;;11.73;;
5876;SDS011;2964;42.144;24.730;2023-07-02T05:20:29;16.83;;;13.07;;
5876;SDS011;2964;42.144;24.730;2023-07-02T05:22:55;16.08;;;13.10;;
5876;SDS011;2964;42.144;24.730;2023-07-02T05:25:22;14.60;;;12.05;;
5876;SDS011;2964;42.144;24.730;2023-07-02T05:27:49;17.63;;;12.63;;
5876;SDS011;2964;42.144;24.730;2023-07-02T05:30:15;20.98;;;13.27;;
5876;SDS011;2964;42.144;24.730;2023-07-02T05:32:42;13.95;;;12.65;;
5876;SDS011;2964;42.144;24.730;2023-07-02T05:35:09;19.52;;;12.02;;
5876;SDS011;2964;42.144;24.730;2023-07-02T05:37:37;13.20;;;11.55;;
5876;SDS011;2964;42.144;24.730;2023-07-02T05:40:04;13.77;;;12.15;;
5876;SDS011;2964;42.144;24.730;2023-07-02T05:42:31;11.88;;;10.75;;
5876;SDS011;2964;42.144;24.730;2023-07-02T05:44:58;13.30;;;10.98;;
5876;SDS011;2964;42.144;24.730;2023-07-02T05:47:25;12.90;;;11.43;;
5876;SDS011;2964;42.144;24.730;2023-07-02T05:49:51;11.00;;;9.95;;
5876;SDS011;2964;42.144;24.730;2023-07-02T05:52:18;12.10;;;11.00;;
5876;SDS011;2964;42.144;24.730;2023-07-02T05:54:46;12.50;;;11.30;;
5876;SDS011;2964;42.144;24.730;2023-07-02T05:57:13;13.85;;;11.80;;
5876;SDS011;2964;42.144;24.730;2023-07-02T05:59:39;12.73;;;11.65;;
5876;SDS011;2964;42.144;24.730;2023-07-02T06:02:06;13.63;;;11.38;;
5876;SDS011;2964;42.144;24.730;2023-07-02T06:04:33;15.18;;;11.60;;
5876;SDS011;2964;42.144;24.730;2023-07-02T06:06:59;15.33;;;13.70;;
5876;SDS011;2964;42.144;24.730;2023-07-02T06:09:26;15.63;;;12.77;;
5876;SDS011;2964;42.144;24.730;2023-07-02T06:11:54;14.60;;;12.43;;
5876;SDS011;2964;42.144;24.730;2023-07-02T06:14:20;13.60;;;11.83;;
5876;SDS011;2964;42.144;24.730;2023-07-02T06:16:50;14.05;;;12.27;;
5876;SDS011;2964;42.144;24.730;2023-07-02T06:19:17;16.03;;;12.17;;
5876;SDS011;2964;42.144;24.730;2023-07-02T06:21:43;13.93;;;12.63;;
5876;SDS011;2964;42.144;24.730;2023-07-02T06:24:10;15.90;;;13.07;;
5876;SDS011;2964;42.144;24.730;2023-07-02T06:26:37;13.47;;;12.20;;
5876;SDS011;2964;42.144;24.730;2023-07-02T06:29:05;13.00;;;11.80;;
5876;SDS011;2964;42.144;24.730;2023-07-02T06:31:32;13.27;;;12.10;;
5876;SDS011;2964;42.144;24.730;2023-07-02T06:33:58;13.50;;;11.38;;
5876;SDS011;2964;42.144;24.730;2023-07-02T06:36:25;13.25;;;11.63;;
5876;SDS011;2964;42.144;24.730;2023-07-02T06:38:52;16.60;;;12.70;;
5876;SDS011;2964;42.144;24.730;2023-07-02T06:41:18;16.67;;;11.85;;
5876;SDS011;2964;42.144;24.730;2023-07-02T06:43:45;13.77;;;12.15;;
5876;SDS011;2964;42.144;24.730;2023-07-02T06:46:13;12.43;;;11.27;;
5876;SDS011;2964;42.144;24.730;2023-07-02T06:48:40;12.52;;;11.32;;
5876;SDS011;2964;42.144;24.730;2023-07-02T06:51:06;14.52;;;11.40;;
5876;SDS011;2964;42.144;24.730;2023-07-02T06:53:33;12.18;;;10.98;;
5876;SDS011;2964;42.144;24.730;2023-07-02T06:56:00;10.30;;;9.50;;
5876;SDS011;2964;42.144;24.730;2023-07-02T06:58:26;10.65;;;9.65;;
5876;SDS011;2964;42.144;24.730;2023-07-02T07:00:53;10.90;;;10.02;;
5876;SDS011;2964;42.144;24.730;2023-07-02T07:03:21;10.63;;;9.65;;
5876;SDS011;2964;42.144;24.730;2023-07-02T07:05:48;11.25;;;10.25;;
5876;SDS011;2964;42.144;24.730;2023-07-02T07:08:15;11.75;;;10.77;;
5876;SDS011;2964;42.144;24.730;2023-07-02T07:10:41;10.32;;;9.63;;
5876;SDS011;2964;42.144;24.730;2023-07-02T07:13:10;11.35;;;10.35;;
5876;SDS011;2964;42.144;24.730;2023-07-02T07:15:36;11.95;;;10.77;;
5876;SDS011;2964;42.144;24.730;2023-07-02T07:18:04;12.40;;;11.38;;
5876;SDS011;2964;42.144;24.730;2023-07-02T07:20:32;12.35;;;11.25;;
5876;SDS011;2964;42.144;24.730;2023-07-02T07:22:58;11.93;;;10.98;;
5876;SDS011;2964;42.144;24.730;2023-07-02T07:25:25;11.32;;;10.32;;
5876;SDS011;2964;42.144;24.730;2023-07-02T07:27:52;10.55;;;9.75;;
5876;SDS011;2964;42.144;24.730;2023-07-02T07:30:19;11.50;;;10.50;;
5876;SDS011;2964;42.144;24.730;2023-07-02T07:32:48;10.55;;;9.65;;
5876;SDS011;2964;42.144;24.730;2023-07-02T07:35:15;12.77;;;11.77;;
5876;SDS011;2964;42.144;24.730;2023-07-02T07:37:43;11.98;;;9.95;;
5876;SDS011;2964;42.144;24.730;2023-07-02T07:40:11;11.45;;;10.40;;
5876;SDS011;2964;42.144;24.730;2023-07-02T07:42:38;10.07;;;9.38;;
5876;SDS011;2964;42.144;24.730;2023-07-02T07:45:05;11.32;;;10.48;;
5876;SDS011;2964;42.144;24.730;2023-07-02T07:47:32;10.85;;;9.52;;
5876;SDS011;2964;42.144;24.730;2023-07-02T07:49:59;57.15;;;12.55;;
5876;SDS011;2964;42.144;24.730;2023-07-02T07:52:26;11.15;;;10.35;;
5876;SDS011;2964;42.144;24.730;2023-07-02T07:54:54;10.82;;;10.10;;
5876;SDS011;2964;42.144;24.730;2023-07-02T07:57:22;9.90;;;9.30;;
5876;SDS011;2964;42.144;24.730;2023-07-02T07:59:48;10.30;;;9.68;;
5876;SDS011;2964;42.144;24.730;2023-07-02T08:02:15;10.57;;;9.82;;
5876;SDS011;2964;42.144;24.730;2023-07-02T08:04:41;10.80;;;10.07;;
5876;SDS011;2964;42.144;24.730;2023-07-02T08:07:08;11.18;;;10.23;;
5876;SDS011;2964;42.144;24.730;2023-07-02T08:09:35;9.60;;;8.90;;
5876;SDS011;2964;42.144;24.730;2023-07-02T08:12:03;11.18;;;10.18;;
5876;SDS011;2964;42.144;24.730;2023-07-02T08:14:30;11.35;;;10.40;;
5876;SDS011;2964;42.144;24.730;2023-07-02T08:16:57;12.00;;;10.98;;
5876;SDS011;2964;42.144;24.730;2023-07-02T08:19:23;10.23;;;9.52;;
5876;SDS011;2964;42.144;24.730;2023-07-02T08:21:50;10.43;;;9.60;;
5876;SDS011;2964;42.144;24.730;2023-07-02T08:24:17;10.63;;;9.55;;
5876;SDS011;2964;42.144;24.730;2023-07-02T08:26:43;11.23;;;9.77;;
5876;SDS011;2964;42.144;24.730;2023-07-02T08:29:13;11.88;;;9.75;;
5876;SDS011;2964;42.144;24.730;2023-07-02T08:31:40;10.55;;;9.50;;
5876;SDS011;2964;42.144;24.730;2023-07-02T08:34:08;10.70;;;9.80;;
5876;SDS011;2964;42.144;24.730;2023-07-02T08:36:34;10.95;;;9.98;;
5876;SDS011;2964;42.144;24.730;2023-07-02T08:39:01;10.70;;;10.00;;
5876;SDS011;2964;42.144;24.730;2023-07-02T08:41:28;10.50;;;9.52;;
5876;SDS011;2964;42.144;24.730;2023-07-02T08:43:56;9.80;;;9.18;;
5876;SDS011;2964;42.144;24.730;2023-07-02T08:46:26;10.63;;;9.73;;
5876;SDS011;2964;42.144;24.730;2023-07-02T08:48:53;10.40;;;9.50;;
5876;SDS011;2964;42.144;24.730;2023-07-02T08:51:19;10.07;;;9.38;;
5876;SDS011;2964;42.144;24.730;2023-07-02T08:53:46;10.55;;;9.65;;
5876;SDS011;2964;42.144;24.730;2023-07-02T08:56:13;12.93;;;9.52;;
5876;SDS011;2964;42.144;24.730;2023-07-02T08:58:39;9.52;;;8.93;;
5876;SDS011;2964;42.144;24.730;2023-07-02T09:01:06;9.93;;;9.23;;
5876;SDS011;2964;42.144;24.730;2023-07-02T09:03:35;9.68;;;8.85;;
5876;SDS011;2964;42.144;24.730;2023-07-02T09:06:03;10.98;;;9.88;;
5876;SDS011;2964;42.144;24.730;2023-07-02T09:08:30;11.02;;;10.02;;
5876;SDS011;2964;42.144;24.730;2023-07-02T09:11:05;9.70;;;9.10;;
5876;SDS011;2964;42.144;24.730;2023-07-02T09:13:41;10.85;;;9.88;;
5876;SDS011;2964;42.144;24.730;2023-07-02T09:16:19;10.63;;;9.93;;
5876;SDS011;2964;42.144;24.730;2023-07-02T09:19:01;10.80;;;9.95;;
5876;SDS011;2964;42.144;24.730;2023-07-02T09:21:39;9.48;;;8.93;;
5876;SDS011;2964;42.144;24.730;2023-07-02T09:24:14;10.60;;;9.90;;
5876;SDS011;2964;42.144;24.730;2023-07-02T09:26:42;10.10;;;9.25;;
5876;SDS011;2964;42.144;24.730;2023-07-02T09:29:09;10.43;;;9.65;;
5876;SDS011;2964;42.144;24.730;2023-07-02T09:31:43;9.93;;;9.23;;
5876;SDS011;2964;42.144;24.730;2023-07-02T09:34:12;10.13;;;9.43;;
5876;SDS011;2964;42.144;24.730;2023-07-02T09:36:39;10.20;;;9.60;;
5876;SDS011;2964;42.144;24.730;2023-07-02T09:39:07;10.52;;;9.55;;
5876;SDS011;2964;42.144;24.730;2023-07-02T09:41:34;10.38;;;9.60;;
5876;SDS011;2964;42.144;24.730;2023-07-02T09:44:01;10.27;;;9.38;;
5876;SDS011;2964;42.144;24.730;2023-07-02T09:46:28;10.00;;;9.18;;
5876;SDS011;2964;42.144;24.730;2023-07-02T09:48:58;8.68;;;8.18;;
5876;SDS011;2964;42.144;24.730;2023-07-02T09:51:26;10.02;;;8.70;;
5876;SDS011;2964;42.144;24.730;2023-07-02T09:53:54;10.15;;;9.10;;
5876;SDS011;2964;42.144;24.730;2023-07-02T09:56:21;9.25;;;8.68;;
5876;SDS011;2964;42.144;24.730;2023-07-02T09:58:47;14.20;;;9.90;;
5876;SDS011;2964;42.144;24.730;2023-07-02T10:01:14;10.13;;;9.50;;
5876;SDS011;2964;42.144;24.730;2023-07-02T10:03:41;9.63;;;9.02;;
5876;SDS011;2964;42.144;24.730;2023-07-02T10:06:08;9.73;;;9.13;;
5876;SDS011;2964;42.144;24.730;2023-07-02T10:08:36;10.35;;;9.45;;
5876;SDS011;2964;42.144;24.730;2023-07-02T10:11:06;9.52;;;8.82;;
5876;SDS011;2964;42.144;24.730;2023-07-02T10:13:36;9.60;;;8.90;;
5876;SDS011;2964;42.144;24.730;2023-07-02T10:16:04;10.52;;;9.35;;
5876;SDS011;2964;42.144;24.730;2023-07-02T10:18:31;10.27;;;9.43;;
5876;SDS011;2964;42.144;24.730;2023-07-02T10:20:58;10.40;;;9.52;;
5876;SDS011;2964;42.144;24.730;2023-07-02T10:23:34;10.02;;;9.40;;
5876;SDS011;2964;42.144;24.730;2023-07-02T10:26:14;9.77;;;9.15;;
5876;SDS011;2964;42.144;24.730;2023-07-02T10:28:42;9.80;;;9.02;;
5876;SDS011;2964;42.144;24.730;2023-07-02T10:31:19;10.63;;;9.93;;
5876;SDS011;2964;42.144;24.730;2023-07-02T10:33:46;10.43;;;9.73;;
5876;SDS011;2964;42.144;24.730;2023-07-02T10:36:19;9.57;;;8.95;;
5876;SDS011;2964;42.144;24.730;2023-07-02T10:38:48;10.73;;;9.73;;
5876;SDS011;2964;42.144;24.730;2023-07-02T10:41:22;10.13;;;9.30;;
5876;SDS011;2964;42.144;24.730;2023-07-02T10:43:50;10.40;;;9.50;;
5876;SDS011;2964;42.144;24.730;2023-07-02T10:46:20;11.50;;;10.68;;
5876;SDS011;2964;42.144;24.730;2023-07-02T10:48:51;12.77;;;10.30;;
5876;SDS011;2964;42.144;24.730;2023-07-02T10:51:18;11.15;;;10.27;;
5876;SDS011;2964;42.144;24.730;2023-07-02T10:53:47;12.57;;;11.32;;
5876;SDS011;2964;42.144;24.730;2023-07-02T10:56:23;14.70;;;13.45;;
5876;SDS011;2964;42.144;24.730;2023-07-02T10:58:49;13.57;;;12.30;;
5876;SDS011;2964;42.144;24.730;2023-07-02T11:01:21;17.33;;;14.45;;
5876;SDS011;2964;42.144;24.730;2023-07-02T11:03:54;14.85;;;13.38;;
5876;SDS011;2964;42.144;24.730;2023-07-02T11:06:21;15.40;;;13.90;;
5876;SDS011;2964;42.144;24.730;2023-07-02T11:08:50;18.48;;;15.50;;
5876;SDS011;2964;42.144;24.730;2023-07-02T11:11:16;16.20;;;14.52;;
5876;SDS011;2964;42.144;24.730;2023-07-02T11:13:44;19.13;;;14.60;;
5876;SDS011;2964;42.144;24.730;2023-07-02T11:16:17;19.52;;;15.52;;
5876;SDS011;2964;42.144;24.730;2023-07-02T11:18:45;21.45;;;15.65;;
5876;SDS011;2964;42.144;24.730;2023-07-02T11:21:11;19.50;;;16.30;;
5876;SDS011;2964;42.144;24.730;2023-07-02T11:23:38;18.13;;;15.93;;
5876;SDS011;2964;42.144;24.730;2023-07-02T11:26:06;21.25;;;15.45;;
5876;SDS011;2964;42.144;24.730;2023-07-02T11:28:33;20.67;;;15.23;;
5876;SDS011;2964;42.144;24.730;2023-07-02T11:31:00;14.82;;;13.32;;
5876;SDS011;2964;42.144;24.730;2023-07-02T11:33:34;15.27;;;13.38;;
5876;SDS011;2964;42.144;24.730;2023-07-02T11:36:02;15.25;;;13.60;;
5876;SDS011;2964;42.144;24.730;2023-07-02T11:38:29;16.17;;;14.07;;
5876;SDS011;2964;42.144;24.730;2023-07-02T11:40:55;15.80;;;14.23;;
5876;SDS011;2964;42.144;24.730;2023-07-02T11:43:24;15.27;;;13.77;;
5876;SDS011;2964;42.144;24.730;2023-07-02T11:45:51;14.75;;;13.27;;
5876;SDS011;2964;42.144;24.730;2023-07-02T11:48:18;15.45;;;13.77;;
5876;SDS011;2964;42.144;24.730;2023-07-02T11:50:44;15.13;;;13.63;;
5876;SDS011;2964;42.144;24.730;2023-07-02T11:53:11;15.90;;;14.27;;
5876;SDS011;2964;42.144;24.730;2023-07-02T11:55:38;17.83;;;14.20;;
5876;SDS011;2964;42.144;24.730;2023-07-02T11:58:05;17.23;;;14.55;;
5876;SDS011;2964;42.144;24.730;2023-07-02T12:00:33;15.63;;;14.02;;
5876;SDS011;2964;42.144;24.730;2023-07-02T12:02:59;15.57;;;14.15;;
5876;SDS011;2964;42.144;24.730;2023-07-02T12:05:26;15.10;;;13.57;;
5876;SDS011;2964;42.144;24.730;2023-07-02T12:07:53;15.65;;;13.80;;
5876;SDS011;2964;42.144;24.730;2023-07-02T12:10:19;14.73;;;13.23;;
5876;SDS011;2964;42.144;24.730;2023-07-02T12:12:46;15.05;;;13.75;;
5876;SDS011;2964;42.144;24.730;2023-07-02T12:15:13;17.73;;;14.55;;
5876;SDS011;2964;42.144;24.730;2023-07-02T12:17:41;15.73;;;14.23;;
5876;SDS011;2964;42.144;24.730;2023-07-02T12:20:07;16.60;;;14.95;;
5876;SDS011;2964;42.144;24.730;2023-07-02T12:22:35;16.13;;;14.50;;
5876;SDS011;2964;42.144;24.730;2023-07-02T12:25:02;16.08;;;14.57;;
5876;SDS011;2964;42.144;24.730;2023-07-02T12:27:28;13.88;;;12.73;;
5876;SDS011;2964;42.144;24.730;2023-07-02T12:29:55;13.07;;;11.80;;
5876;SDS011;2964;42.144;24.730;2023-07-02T12:32:22;12.70;;;11.65;;
5876;SDS011;2964;42.144;24.730;2023-07-02T12:34:50;14.75;;;12.20;;
5876;SDS011;2964;42.144;24.730;2023-07-02T12:37:17;12.93;;;11.93;;
5876;SDS011;2964;42.144;24.730;2023-07-02T12:39:45;13.00;;;11.70;;
5876;SDS011;2964;42.144;24.730;2023-07-02T12:42:12;13.25;;;11.85;;
5876;SDS011;2964;42.144;24.730;2023-07-02T12:44:39;13.80;;;12.43;;
5876;SDS011;2964;42.144;24.730;2023-07-02T12:47:05;13.07;;;11.85;;
5876;SDS011;2964;42.144;24.730;2023-07-02T12:49:33;13.48;;;12.27;;
5876;SDS011;2964;42.144;24.730;2023-07-02T12:52:01;12.85;;;11.75;;
5876;SDS011;2964;42.144;24.730;2023-07-02T12:54:28;14.68;;;13.15;;
5876;SDS011;2964;42.144;24.730;2023-07-02T12:56:55;13.02;;;11.82;;
5876;SDS011;2964;42.144;24.730;2023-07-02T12:59:22;13.32;;;12.02;;
5876;SDS011;2964;42.144;24.730;2023-07-02T13:01:48;18.23;;;16.52;;
5876;SDS011;2964;42.144;24.730;2023-07-02T13:04:15;17.10;;;15.57;;
5876;SDS011;2964;42.144;24.730;2023-07-02T13:06:42;14.15;;;12.75;;
5876;SDS011;2964;42.144;24.730;2023-07-02T13:09:12;14.63;;;13.15;;
5876;SDS011;2964;42.144;24.730;2023-07-02T13:11:38;12.88;;;11.77;;
5876;SDS011;2964;42.144;24.730;2023-07-02T13:14:05;17.60;;;12.88;;
5876;SDS011;2964;42.144;24.730;2023-07-02T13:16:32;13.85;;;12.60;;
5876;SDS011;2964;42.144;24.730;2023-07-02T13:18:58;14.07;;;12.98;;
5876;SDS011;2964;42.144;24.730;2023-07-02T13:21:27;14.32;;;12.27;;
5876;SDS011;2964;42.144;24.730;2023-07-02T13:23:53;13.30;;;12.10;;
5876;SDS011;2964;42.144;24.730;2023-07-02T13:26:21;13.95;;;12.57;;
5876;SDS011;2964;42.144;24.730;2023-07-02T13:28:48;12.88;;;11.65;;
5876;SDS011;2964;42.144;24.730;2023-07-02T13:31:15;14.63;;;13.27;;
5876;SDS011;2964;42.144;24.730;2023-07-02T13:33:42;15.38;;;13.90;;
5876;SDS011;2964;42.144;24.730;2023-07-02T13:36:08;13.43;;;12.23;;
5876;SDS011;2964;42.144;24.730;2023-07-02T13:38:35;13.27;;;12.15;;
5876;SDS011;2964;42.144;24.730;2023-07-02T13:41:02;14.60;;;13.38;;
5876;SDS011;2964;42.144;24.730;2023-07-02T13:43:30;32.55;;;27.52;;
5876;SDS011;2964;42.144;24.730;2023-07-02T13:45:57;22.58;;;20.48;;
5876;SDS011;2964;42.144;24.730;2023-07-02T13:48:23;22.35;;;20.20;;
5876;SDS011;2964;42.144;24.730;2023-07-02T13:50:50;15.43;;;14.13;;
5876;SDS011;2964;42.144;24.730;2023-07-02T13:53:17;15.98;;;14.52;;
5876;SDS011;2964;42.144;24.730;2023-07-02T13:55:43;15.18;;;13.77;;
5876;SDS011;2964;42.144;24.730;2023-07-02T13:58:10;16.52;;;14.93;;
5876;SDS011;2964;42.144;24.730;2023-07-02T14:00:38;14.82;;;13.57;;
5876;SDS011;2964;42.144;24.730;2023-07-02T14:03:05;16.02;;;14.23;;
5876;SDS011;2964;42.144;24.730;2023-07-02T14:05:32;17.50;;;14.95;;
5876;SDS011;2964;42.144;24.730;2023-07-02T14:07:59;16.20;;;14.52;;
5876;SDS011;2964;42.144;24.730;2023-07-02T14:10:25;16.25;;;14.75;;
5876;SDS011;2964;42.144;24.730;2023-07-02T14:12:53;13.60;;;12.50;;
5876;SDS011;2964;42.144;24.730;2023-07-02T14:15:20;13.77;;;12.43;;
5876;SDS011;2964;42.144;24.730;2023-07-02T14:17:49;14.13;;;12.93;;
5876;SDS011;2964;42.144;24.730;2023-07-02T14:20:16;13.73;;;12.55;;
5876;SDS011;2964;42.144;24.730;2023-07-02T14:22:43;13.30;;;12.15;;
5876;SDS011;2964;42.144;24.730;2023-07-02T14:25:10;14.20;;;12.73;;
5876;SDS011;2964;42.144;24.730;2023-07-02T14:27:37;12.73;;;11.52;;
5876;SDS011;2964;42.144;24.730;2023-07-02T14:30:04;12.88;;;11.60;;
5876;SDS011;2964;42.144;24.730;2023-07-02T14:32:32;11.77;;;10.70;;
5876;SDS011;2964;42.144;24.730;2023-07-02T14:35:01;11.80;;;10.90;;
5876;SDS011;2964;42.144;24.730;2023-07-02T14:37:28;12.00;;;10.98;;
5876;SDS011;2964;42.144;24.730;2023-07-02T14:39:55;12.00;;;10.65;;